sensor_id;sensor_type;location;lat;lon;timestamp;pressure;altitude;pressure_sealevel;temperature;humidity
75551;BME280;65071;53.082;18.218;2023-05-10T00:00:15;101697.66;;;9.27;49.52
75551;BME280;65071;53.082;18.218;2023-05-10T00:03:02;101692.79;;;9.23;50.01
75551;BME280;65071;53.082;18.218;2023-05-10T00:05:31;101693.35;;;9.19;50.01
75551;BME280;65071;53.082;18.218;2023-05-10T00:07:57;101692.16;;;9.15;50.08
75551;BME280;65071;53.082;18.218;2023-05-10T00:10:24;101689.33;;;9.13;50.02
75551;BME280;65071;53.082;18.218;2023-05-10T00:12:50;101688.85;;;9.10;50.44
75551;BME280;65071;53.082;18.218;2023-05-10T00:15:17;101688.61;;;9.08;50.03
75551;BME280;65071;53.082;18.218;2023-05-10T00:17:43;101686.90;;;9.05;50.23
75551;BME280;65071;53.082;18.218;2023-05-10T00:20:10;101686.86;;;9.01;50.71
75551;BME280;65071;53.082;18.218;2023-05-10T00:22:37;101686.64;;;8.99;50.31
75551;BME280;65071;53.082;18.218;2023-05-10T00:25:04;101682.68;;;8.97;50.04
75551;BME280;65071;53.082;18.218;2023-05-10T00:27:30;101679.79;;;8.95;49.72
75551;BME280;65071;53.082;18.218;2023-05-10T00:29:57;101680.71;;;8.93;50.42
75551;BME280;65071;53.082;18.218;2023-05-10T00:32:23;101675.70;;;8.90;50.07
75551;BME280;65071;53.082;18.218;2023-05-10T00:34:50;101677.61;;;8.86;51.26
75551;BME280;65071;53.082;18.218;2023-05-10T00:37:17;101677.08;;;8.84;51.04
75551;BME280;65071;53.082;18.218;2023-05-10T00:39:43;101673.55;;;8.81;50.85
75551;BME280;65071;53.082;18.218;2023-05-10T00:42:11;101673.52;;;8.79;51.06
75551;BME280;65071;53.082;18.218;2023-05-10T00:44:37;101672.76;;;8.75;51.50
75551;BME280;65071;53.082;18.218;2023-05-10T00:47:05;101666.84;;;8.73;51.50
75551;BME280;65071;53.082;18.218;2023-05-10T00:49:32;101666.40;;;8.69;51.44
75551;BME280;65071;53.082;18.218;2023-05-10T00:51:59;101664.83;;;8.66;51.22
75551;BME280;65071;53.082;18.218;2023-05-10T00:54:26;101662.81;;;8.64;51.28
75551;BME280;65071;53.082;18.218;2023-05-10T00:56:52;101661.67;;;8.60;51.87
75551;BME280;65071;53.082;18.218;2023-05-10T00:59:19;101660.67;;;8.57;51.95
75551;BME280;65071;53.082;18.218;2023-05-10T01:01:47;101662.00;;;8.54;51.94
75551;BME280;65071;53.082;18.218;2023-05-10T01:04:14;101656.71;;;8.51;51.52
75551;BME280;65071;53.082;18.218;2023-05-10T01:06:42;101659.31;;;8.47;52.34
75551;BME280;65071;53.082;18.218;2023-05-10T01:09:09;101659.45;;;8.43;52.24
75551;BME280;65071;53.082;18.218;2023-05-10T01:11:38;101660.31;;;8.39;52.28
75551;BME280;65071;53.082;18.218;2023-05-10T01:14:05;101661.42;;;8.34;52.65
75551;BME280;65071;53.082;18.218;2023-05-10T01:16:35;101658.77;;;8.29;52.32
75551;BME280;65071;53.082;18.218;2023-05-10T01:30:15;101654.11;;;7.98;53.52
75551;BME280;65071;53.082;18.218;2023-05-10T01:35:32;101644.85;;;7.85;54.24
75551;BME280;65071;53.082;18.218;2023-05-10T01:38:19;101642.90;;;7.80;54.07
75551;BME280;65071;53.082;18.218;2023-05-10T01:41:11;101639.66;;;7.76;53.94
75551;BME280;65071;53.082;18.218;2023-05-10T01:44:10;101636.11;;;7.71;54.80
75551;BME280;65071;53.082;18.218;2023-05-10T01:46:40;101636.27;;;7.66;54.37
75551;BME280;65071;53.082;18.218;2023-05-10T01:49:23;101635.54;;;7.62;55.36
75551;BME280;65071;53.082;18.218;2023-05-10T01:51:54;101636.23;;;7.57;55.56
75551;BME280;65071;53.082;18.218;2023-05-10T01:54:28;101635.17;;;7.54;55.05
75551;BME280;65071;53.082;18.218;2023-05-10T01:57:00;101633.66;;;7.51;55.16
75551;BME280;65071;53.082;18.218;2023-05-10T01:59:33;101634.11;;;7.47;56.12
75551;BME280;65071;53.082;18.218;2023-05-10T02:02:04;101629.14;;;7.44;55.57
75551;BME280;65071;53.082;18.218;2023-05-10T02:04:33;101630.84;;;7.41;56.05
75551;BME280;65071;53.082;18.218;2023-05-10T02:07:01;101628.20;;;7.38;56.04
75551;BME280;65071;53.082;18.218;2023-05-10T02:09:29;101622.85;;;7.35;56.12
75551;BME280;65071;53.082;18.218;2023-05-10T02:11:58;101621.63;;;7.32;55.30
75551;BME280;65071;53.082;18.218;2023-05-10T02:14:26;101618.77;;;7.29;56.56
75551;BME280;65071;53.082;18.218;2023-05-10T02:16:54;101617.20;;;7.26;56.17
75551;BME280;65071;53.082;18.218;2023-05-10T02:19:23;101613.73;;;7.22;57.27
75551;BME280;65071;53.082;18.218;2023-05-10T02:21:51;101613.14;;;7.18;56.47
75551;BME280;65071;53.082;18.218;2023-05-10T02:24:18;101608.02;;;7.14;56.64
75551;BME280;65071;53.082;18.218;2023-05-10T02:26:47;101605.67;;;7.10;57.63
75551;BME280;65071;53.082;18.218;2023-05-10T02:29:16;101608.25;;;7.06;57.22
75551;BME280;65071;53.082;18.218;2023-05-10T02:31:43;101607.66;;;7.02;57.90
75551;BME280;65071;53.082;18.218;2023-05-10T02:34:11;101605.23;;;6.99;57.64
75551;BME280;65071;53.082;18.218;2023-05-10T02:36:39;101606.89;;;6.96;58.31
75551;BME280;65071;53.082;18.218;2023-05-10T02:39:07;101607.73;;;6.94;57.81
75551;BME280;65071;53.082;18.218;2023-05-10T02:41:40;101607.03;;;6.91;58.36
75551;BME280;65071;53.082;18.218;2023-05-10T02:44:09;101608.59;;;6.87;58.38
75551;BME280;65071;53.082;18.218;2023-05-10T02:46:37;101607.17;;;6.84;57.57
75551;BME280;65071;53.082;18.218;2023-05-10T02:49:03;101606.61;;;6.82;58.37
75551;BME280;65071;53.082;18.218;2023-05-10T02:51:32;101611.63;;;6.80;58.12
75551;BME280;65071;53.082;18.218;2023-05-10T02:54:07;101615.64;;;6.79;58.91
75551;BME280;65071;53.082;18.218;2023-05-10T02:56:40;101613.66;;;6.76;58.94
75551;BME280;65071;53.082;18.218;2023-05-10T02:59:08;101612.88;;;6.75;59.14
75551;BME280;65071;53.082;18.218;2023-05-10T03:01:35;101612.69;;;6.72;58.83
75551;BME280;65071;53.082;18.218;2023-05-10T03:04:01;101614.41;;;6.73;58.51
75551;BME280;65071;53.082;18.218;2023-05-10T03:06:28;101614.14;;;6.72;58.65
75551;BME280;65071;53.082;18.218;2023-05-10T03:08:55;101610.95;;;6.71;58.37
75551;BME280;65071;53.082;18.218;2023-05-10T03:11:32;101613.58;;;6.70;59.11
75551;BME280;65071;53.082;18.218;2023-05-10T03:14:16;101616.84;;;6.69;58.60
75551;BME280;65071;53.082;18.218;2023-05-10T03:16:56;101612.27;;;6.68;58.63
75551;BME280;65071;53.082;18.218;2023-05-10T03:19:48;101615.44;;;6.69;58.79
75551;BME280;65071;53.082;18.218;2023-05-10T03:22:27;101613.95;;;6.72;58.81
75551;BME280;65071;53.082;18.218;2023-05-10T03:24:57;101612.35;;;6.77;58.66
75551;BME280;65071;53.082;18.218;2023-05-10T03:27:26;101615.02;;;6.82;58.87
75551;BME280;65071;53.082;18.218;2023-05-10T03:29:54;101609.76;;;6.88;58.81
75551;BME280;65071;53.082;18.218;2023-05-10T03:32:22;101609.10;;;6.97;58.89
75551;BME280;65071;53.082;18.218;2023-05-10T03:34:49;101608.05;;;7.12;57.67
75551;BME280;65071;53.082;18.218;2023-05-10T03:37:15;101614.47;;;7.29;57.89
75551;BME280;65071;53.082;18.218;2023-05-10T03:39:42;101611.46;;;7.49;57.75
75551;BME280;65071;53.082;18.218;2023-05-10T03:42:09;101608.38;;;7.68;56.97
75551;BME280;65071;53.082;18.218;2023-05-10T03:44:41;101610.05;;;7.88;56.61
75551;BME280;65071;53.082;18.218;2023-05-10T03:47:08;101607.14;;;8.08;56.28
75551;BME280;65071;53.082;18.218;2023-05-10T03:49:35;101607.86;;;8.31;55.55
75551;BME280;65071;53.082;18.218;2023-05-10T03:52:02;101604.31;;;8.51;55.05
75551;BME280;65071;53.082;18.218;2023-05-10T03:54:28;101599.71;;;8.73;54.12
75551;BME280;65071;53.082;18.218;2023-05-10T03:56:55;101600.30;;;8.93;53.75
75551;BME280;65071;53.082;18.218;2023-05-10T03:59:21;101597.90;;;9.14;53.23
75551;BME280;65071;53.082;18.218;2023-05-10T04:01:48;101599.30;;;9.31;52.44
75551;BME280;65071;53.082;18.218;2023-05-10T04:04:14;101596.30;;;9.44;52.05
75551;BME280;65071;53.082;18.218;2023-05-10T04:06:41;101598.02;;;9.64;51.79
75551;BME280;65071;53.082;18.218;2023-05-10T04:09:08;101600.75;;;9.85;51.28
75551;BME280;65071;53.082;18.218;2023-05-10T04:11:34;101597.83;;;10.07;50.92
75551;BME280;65071;53.082;18.218;2023-05-10T04:14:01;101596.39;;;10.18;50.49
75551;BME280;65071;53.082;18.218;2023-05-10T04:16:27;101600.04;;;10.32;49.70
75551;BME280;65071;53.082;18.218;2023-05-10T04:18:54;101594.54;;;10.46;49.31
75551;BME280;65071;53.082;18.218;2023-05-10T04:21:21;101595.00;;;10.65;49.05
75551;BME280;65071;53.082;18.218;2023-05-10T04:23:47;101588.16;;;10.79;48.80
75551;BME280;65071;53.082;18.218;2023-05-10T04:26:14;101587.67;;;10.93;48.47
75551;BME280;65071;53.082;18.218;2023-05-10T04:28:40;101589.86;;;10.99;47.88
75551;BME280;65071;53.082;18.218;2023-05-10T04:31:09;101591.08;;;11.05;47.62
75551;BME280;65071;53.082;18.218;2023-05-10T04:33:36;101589.19;;;11.14;47.44
75551;BME280;65071;53.082;18.218;2023-05-10T04:36:03;101588.58;;;11.27;47.04
75551;BME280;65071;53.082;18.218;2023-05-10T04:38:30;101584.60;;;11.42;46.54
75551;BME280;65071;53.082;18.218;2023-05-10T04:41:07;101583.40;;;11.91;45.98
75551;BME280;65071;53.082;18.218;2023-05-10T04:43:34;101584.36;;;12.08;45.21
75551;BME280;65071;53.082;18.218;2023-05-10T04:46:01;101581.58;;;12.26;45.61
75551;BME280;65071;53.082;18.218;2023-05-10T04:48:28;101580.07;;;12.53;44.99
75551;BME280;65071;53.082;18.218;2023-05-10T04:50:55;101577.27;;;12.87;44.40
75551;BME280;65071;53.082;18.218;2023-05-10T04:53:22;101580.05;;;13.68;41.70
75551;BME280;65071;53.082;18.218;2023-05-10T04:55:49;101574.95;;;14.65;40.33
75551;BME280;65071;53.082;18.218;2023-05-10T04:58:15;101570.91;;;15.37;38.64
75551;BME280;65071;53.082;18.218;2023-05-10T05:00:42;101573.25;;;15.72;38.43
75551;BME280;65071;53.082;18.218;2023-05-10T05:03:08;101572.25;;;15.81;37.26
75551;BME280;65071;53.082;18.218;2023-05-10T05:05:35;101568.92;;;15.79;37.29
75551;BME280;65071;53.082;18.218;2023-05-10T05:08:02;101569.98;;;15.54;37.40
75551;BME280;65071;53.082;18.218;2023-05-10T05:10:28;101569.49;;;15.03;38.09
75551;BME280;65071;53.082;18.218;2023-05-10T05:12:56;101566.95;;;14.73;38.39
75551;BME280;65071;53.082;18.218;2023-05-10T05:15:22;101570.34;;;14.61;39.25
75551;BME280;65071;53.082;18.218;2023-05-10T05:17:49;101569.40;;;14.51;39.23
75551;BME280;65071;53.082;18.218;2023-05-10T05:20:15;101567.80;;;14.65;39.71
75551;BME280;65071;53.082;18.218;2023-05-10T05:22:42;101570.19;;;14.61;39.13
75551;BME280;65071;53.082;18.218;2023-05-10T05:25:09;101570.43;;;14.45;39.17
75551;BME280;65071;53.082;18.218;2023-05-10T05:27:35;101570.39;;;14.52;39.14
75551;BME280;65071;53.082;18.218;2023-05-10T05:30:02;101570.88;;;14.62;39.36
75551;BME280;65071;53.082;18.218;2023-05-10T05:32:29;101574.55;;;14.65;39.02
75551;BME280;65071;53.082;18.218;2023-05-10T05:34:56;101567.23;;;14.65;38.85
75551;BME280;65071;53.082;18.218;2023-05-10T05:37:23;101567.59;;;14.79;39.16
75551;BME280;65071;53.082;18.218;2023-05-10T05:39:50;101564.52;;;14.69;38.50
75551;BME280;65071;53.082;18.218;2023-05-10T05:42:17;101556.69;;;14.79;38.94
75551;BME280;65071;53.082;18.218;2023-05-10T05:44:44;101559.69;;;14.99;38.43
75551;BME280;65071;53.082;18.218;2023-05-10T05:47:11;101559.98;;;15.16;38.37
75551;BME280;65071;53.082;18.218;2023-05-10T05:49:41;101561.86;;;15.27;37.61
75551;BME280;65071;53.082;18.218;2023-05-10T05:52:08;101557.35;;;15.45;37.62
75551;BME280;65071;53.082;18.218;2023-05-10T05:54:35;101556.89;;;15.56;37.42
75551;BME280;65071;53.082;18.218;2023-05-10T05:57:03;101556.86;;;15.71;36.96
75551;BME280;65071;53.082;18.218;2023-05-10T05:59:30;101560.98;;;15.93;36.86
75551;BME280;65071;53.082;18.218;2023-05-10T06:01:57;101559.38;;;16.06;36.40
75551;BME280;65071;53.082;18.218;2023-05-10T06:04:24;101556.28;;;16.14;35.34
75551;BME280;65071;53.082;18.218;2023-05-10T06:06:50;101558.94;;;16.10;34.95
75551;BME280;65071;53.082;18.218;2023-05-10T06:09:17;101558.73;;;16.14;35.25
75551;BME280;65071;53.082;18.218;2023-05-10T06:11:44;101559.04;;;16.17;35.00
75551;BME280;65071;53.082;18.218;2023-05-10T06:14:11;101558.96;;;16.05;34.64
75551;BME280;65071;53.082;18.218;2023-05-10T06:16:38;101561.09;;;16.22;34.69
75551;BME280;65071;53.082;18.218;2023-05-10T06:19:04;101560.30;;;16.29;34.39
75551;BME280;65071;53.082;18.218;2023-05-10T06:21:31;101560.64;;;16.31;34.20
75551;BME280;65071;53.082;18.218;2023-05-10T06:23:58;101562.13;;;16.51;34.55
75551;BME280;65071;53.082;18.218;2023-05-10T06:26:25;101563.60;;;16.70;35.00
75551;BME280;65071;53.082;18.218;2023-05-10T06:28:51;101557.91;;;16.83;33.78
75551;BME280;65071;53.082;18.218;2023-05-10T06:31:18;101560.02;;;16.92;33.13
75551;BME280;65071;53.082;18.218;2023-05-10T06:33:45;101558.90;;;16.86;32.62
75551;BME280;65071;53.082;18.218;2023-05-10T06:36:12;101556.14;;;16.86;33.28
75551;BME280;65071;53.082;18.218;2023-05-10T06:38:39;101557.21;;;17.16;34.00
75551;BME280;65071;53.082;18.218;2023-05-10T06:41:06;101559.56;;;17.33;33.06
75551;BME280;65071;53.082;18.218;2023-05-10T06:43:33;101556.03;;;17.35;32.47
75551;BME280;65071;53.082;18.218;2023-05-10T06:46:00;101563.63;;;17.31;32.05
75551;BME280;65071;53.082;18.218;2023-05-10T06:48:27;101558.43;;;17.35;32.06
75551;BME280;65071;53.082;18.218;2023-05-10T06:50:54;101557.08;;;17.39;32.15
75551;BME280;65071;53.082;18.218;2023-05-10T06:53:22;101554.58;;;17.62;32.43
75551;BME280;65071;53.082;18.218;2023-05-10T06:55:51;101555.52;;;17.89;32.49
75551;BME280;65071;53.082;18.218;2023-05-10T06:58:21;101558.62;;;17.81;31.18
75551;BME280;65071;53.082;18.218;2023-05-10T07:00:50;101549.48;;;17.85;31.77
75551;BME280;65071;53.082;18.218;2023-05-10T07:03:24;101550.02;;;17.86;31.35
75551;BME280;65071;53.082;18.218;2023-05-10T07:05:52;101550.42;;;17.77;31.41
75551;BME280;65071;53.082;18.218;2023-05-10T07:08:19;101542.06;;;18.10;31.80
75551;BME280;65071;53.082;18.218;2023-05-10T07:10:46;101547.04;;;18.32;31.56
75551;BME280;65071;53.082;18.218;2023-05-10T07:13:12;101546.51;;;18.20;30.64
75551;BME280;65071;53.082;18.218;2023-05-10T07:15:39;101548.73;;;18.39;31.05
75551;BME280;65071;53.082;18.218;2023-05-10T07:18:06;101552.45;;;18.24;30.48
75551;BME280;65071;53.082;18.218;2023-05-10T07:20:33;101550.81;;;18.09;30.56
75551;BME280;65071;53.082;18.218;2023-05-10T07:23:00;101547.63;;;18.20;31.16
75551;BME280;65071;53.082;18.218;2023-05-10T07:25:27;101546.77;;;18.29;30.86
75551;BME280;65071;53.082;18.218;2023-05-10T07:27:54;101550.41;;;18.16;30.34
75551;BME280;65071;53.082;18.218;2023-05-10T07:30:21;101551.29;;;17.86;30.41
75551;BME280;65071;53.082;18.218;2023-05-10T07:32:50;101546.59;;;17.98;30.58
75551;BME280;65071;53.082;18.218;2023-05-10T07:35:17;101545.89;;;18.08;30.27
75551;BME280;65071;53.082;18.218;2023-05-10T07:37:44;101543.77;;;18.19;30.42
75551;BME280;65071;53.082;18.218;2023-05-10T07:40:13;101545.34;;;18.40;30.42
75551;BME280;65071;53.082;18.218;2023-05-10T07:42:40;101546.63;;;18.49;29.97
75551;BME280;65071;53.082;18.218;2023-05-10T07:45:08;101540.53;;;18.44;29.74
75551;BME280;65071;53.082;18.218;2023-05-10T07:47:35;101539.09;;;18.53;30.35
75551;BME280;65071;53.082;18.218;2023-05-10T07:50:02;101537.01;;;18.83;30.53
75551;BME280;65071;53.082;18.218;2023-05-10T07:52:28;101539.24;;;18.82;29.45
75551;BME280;65071;53.082;18.218;2023-05-10T07:54:56;101542.70;;;18.90;29.70
75551;BME280;65071;53.082;18.218;2023-05-10T07:57:23;101543.02;;;19.02;29.57
75551;BME280;65071;53.082;18.218;2023-05-10T07:59:50;101541.23;;;18.93;28.80
75551;BME280;65071;53.082;18.218;2023-05-10T08:02:17;101545.88;;;19.00;29.07
75551;BME280;65071;53.082;18.218;2023-05-10T08:04:44;101546.56;;;18.95;29.04
75551;BME280;65071;53.082;18.218;2023-05-10T08:07:11;101542.77;;;18.91;29.00
75551;BME280;65071;53.082;18.218;2023-05-10T08:09:37;101541.59;;;18.89;28.81
75551;BME280;65071;53.082;18.218;2023-05-10T08:12:05;101531.56;;;19.05;29.03
75551;BME280;65071;53.082;18.218;2023-05-10T08:14:32;101533.17;;;19.18;28.38
75551;BME280;65071;53.082;18.218;2023-05-10T08:16:58;101535.33;;;19.09;28.24
75551;BME280;65071;53.082;18.218;2023-05-10T08:19:25;101531.60;;;19.19;28.63
75551;BME280;65071;53.082;18.218;2023-05-10T08:21:52;101533.26;;;19.25;28.37
75551;BME280;65071;53.082;18.218;2023-05-10T08:24:19;101532.21;;;19.16;27.99
75551;BME280;65071;53.082;18.218;2023-05-10T08:26:46;101528.52;;;19.07;28.13
75551;BME280;65071;53.082;18.218;2023-05-10T08:29:14;101533.73;;;19.18;28.27
75551;BME280;65071;53.082;18.218;2023-05-10T08:31:41;101531.47;;;19.04;28.18
75551;BME280;65071;53.082;18.218;2023-05-10T08:34:08;101531.90;;;19.17;28.19
75551;BME280;65071;53.082;18.218;2023-05-10T08:36:34;101527.75;;;19.31;28.44
75551;BME280;65071;53.082;18.218;2023-05-10T08:39:01;101527.83;;;19.36;28.31
75551;BME280;65071;53.082;18.218;2023-05-10T08:41:29;101534.70;;;19.34;28.23
75551;BME280;65071;53.082;18.218;2023-05-10T08:43:56;101538.10;;;19.07;27.61
75551;BME280;65071;53.082;18.218;2023-05-10T08:46:23;101534.92;;;19.10;28.23
75551;BME280;65071;53.082;18.218;2023-05-10T08:48:50;101529.09;;;19.27;28.29
75551;BME280;65071;53.082;18.218;2023-05-10T08:51:22;101533.85;;;19.24;28.01
75551;BME280;65071;53.082;18.218;2023-05-10T08:53:50;101527.96;;;19.37;28.22
75551;BME280;65071;53.082;18.218;2023-05-10T08:56:17;101528.95;;;19.48;28.37
75551;BME280;65071;53.082;18.218;2023-05-10T08:58:44;101529.39;;;19.38;27.73
75551;BME280;65071;53.082;18.218;2023-05-10T09:01:10;101529.46;;;19.23;27.61
75551;BME280;65071;53.082;18.218;2023-05-10T09:03:39;101530.91;;;19.09;27.81
75551;BME280;65071;53.082;18.218;2023-05-10T09:06:06;101525.98;;;19.19;28.22
75551;BME280;65071;53.082;18.218;2023-05-10T09:08:34;101531.44;;;19.20;27.88
75551;BME280;65071;53.082;18.218;2023-05-10T09:11:03;101526.40;;;19.15;27.96
75551;BME280;65071;53.082;18.218;2023-05-10T09:13:30;101524.09;;;19.24;27.98
75551;BME280;65071;53.082;18.218;2023-05-10T09:15:57;101527.08;;;19.38;27.88
75551;BME280;65071;53.082;18.218;2023-05-10T09:18:24;101519.98;;;19.46;28.41
75551;BME280;65071;53.082;18.218;2023-05-10T09:20:51;101525.02;;;19.60;28.00
75551;BME280;65071;53.082;18.218;2023-05-10T09:23:17;101514.63;;;19.64;27.84
75551;BME280;65071;53.082;18.218;2023-05-10T09:25:44;101510.01;;;19.77;28.07
75551;BME280;65071;53.082;18.218;2023-05-10T09:28:11;101516.49;;;19.72;27.60
75551;BME280;65071;53.082;18.218;2023-05-10T09:30:38;101523.17;;;19.71;27.40
75551;BME280;65071;53.082;18.218;2023-05-10T09:33:05;101516.11;;;19.58;27.45
75551;BME280;65071;53.082;18.218;2023-05-10T09:35:35;101517.02;;;19.59;27.18
75551;BME280;65071;53.082;18.218;2023-05-10T09:38:04;101511.33;;;19.63;27.37
75551;BME280;65071;53.082;18.218;2023-05-10T09:40:31;101514.17;;;19.72;27.56
75551;BME280;65071;53.082;18.218;2023-05-10T09:43:04;101508.78;;;19.84;27.66
75551;BME280;65071;53.082;18.218;2023-05-10T10:07:32;101503.33;;;20.07;27.29
75551;BME280;65071;53.082;18.218;2023-05-10T10:09:59;101496.93;;;20.18;27.84
75551;BME280;65071;53.082;18.218;2023-05-10T10:12:27;101503.75;;;20.11;27.80
75551;BME280;65071;53.082;18.218;2023-05-10T10:14:55;101498.66;;;20.21;27.35
75551;BME280;65071;53.082;18.218;2023-05-10T10:17:23;101497.51;;;20.10;27.05
75551;BME280;65071;53.082;18.218;2023-05-10T10:19:55;101484.70;;;20.07;27.57
75551;BME280;65071;53.082;18.218;2023-05-10T10:22:21;101485.80;;;20.04;28.35
75551;BME280;65071;53.082;18.218;2023-05-10T10:24:49;101486.27;;;20.09;28.60
75551;BME280;65071;53.082;18.218;2023-05-10T10:27:26;101480.99;;;20.25;28.75
75551;BME280;65071;53.082;18.218;2023-05-10T10:30:25;101479.97;;;20.39;27.98
75551;BME280;65071;53.082;18.218;2023-05-10T10:36:19;101474.94;;;20.27;28.47
75551;BME280;65071;53.082;18.218;2023-05-10T10:41:28;101475.66;;;20.24;27.73
75551;BME280;65071;53.082;18.218;2023-05-10T10:44:23;101477.34;;;20.21;28.15
75551;BME280;65071;53.082;18.218;2023-05-10T11:00:30;101472.56;;;19.95;28.72
75551;BME280;65071;53.082;18.218;2023-05-10T11:07:52;101475.38;;;19.81;28.44
75551;BME280;65071;53.082;18.218;2023-05-10T11:10:21;101465.64;;;19.73;28.45
75551;BME280;65071;53.082;18.218;2023-05-10T11:13:00;101461.19;;;19.69;28.90
75551;BME280;65071;53.082;18.218;2023-05-10T11:15:29;101461.06;;;19.81;29.10
75551;BME280;65071;53.082;18.218;2023-05-10T11:17:56;101463.70;;;19.89;28.96
75551;BME280;65071;53.082;18.218;2023-05-10T11:20:23;101459.16;;;20.00;29.13
75551;BME280;65071;53.082;18.218;2023-05-10T11:23:11;101466.55;;;20.11;28.97
75551;BME280;65071;53.082;18.218;2023-05-10T11:25:42;101461.80;;;20.11;28.86
75551;BME280;65071;53.082;18.218;2023-05-10T11:28:11;101451.58;;;20.15;28.74
75551;BME280;65071;53.082;18.218;2023-05-10T11:30:39;101462.56;;;20.12;28.69
75551;BME280;65071;53.082;18.218;2023-05-10T11:33:07;101458.77;;;20.05;28.35
75551;BME280;65071;53.082;18.218;2023-05-10T11:35:40;101451.67;;;20.00;28.16
75551;BME280;65071;53.082;18.218;2023-05-10T11:38:11;101452.42;;;19.90;28.65
75551;BME280;65071;53.082;18.218;2023-05-10T11:40:39;101441.48;;;19.97;28.79
75551;BME280;65071;53.082;18.218;2023-05-10T11:43:06;101452.66;;;20.02;28.21
75551;BME280;65071;53.082;18.218;2023-05-10T11:45:33;101450.95;;;20.00;27.70
75551;BME280;65071;53.082;18.218;2023-05-10T11:48:00;101449.92;;;19.94;27.73
75551;BME280;65071;53.082;18.218;2023-05-10T11:50:27;101444.64;;;19.91;28.04
75551;BME280;65071;53.082;18.218;2023-05-10T11:52:55;101451.10;;;19.93;28.15
75551;BME280;65071;53.082;18.218;2023-05-10T11:55:23;101446.65;;;19.90;27.66
75551;BME280;65071;53.082;18.218;2023-05-10T11:57:54;101440.63;;;19.95;27.94
75551;BME280;65071;53.082;18.218;2023-05-10T12:00:21;101440.33;;;20.03;28.09
75551;BME280;65071;53.082;18.218;2023-05-10T12:02:48;101442.98;;;20.01;27.34
75551;BME280;65071;53.082;18.218;2023-05-10T12:05:15;101435.62;;;19.92;27.36
75551;BME280;65071;53.082;18.218;2023-05-10T12:07:42;101431.20;;;19.82;27.47
75551;BME280;65071;53.082;18.218;2023-05-10T12:12:38;101439.91;;;19.95;27.20
75551;BME280;65071;53.082;18.218;2023-05-10T12:15:05;101444.61;;;19.94;27.20
75551;BME280;65071;53.082;18.218;2023-05-10T12:17:37;101440.23;;;19.87;27.15
75551;BME280;65071;53.082;18.218;2023-05-10T12:20:19;101440.45;;;19.94;27.29
75551;BME280;65071;53.082;18.218;2023-05-10T12:22:55;101440.81;;;19.94;26.51
75551;BME280;65071;53.082;18.218;2023-05-10T12:25:23;101432.67;;;19.97;26.83
75551;BME280;65071;53.082;18.218;2023-05-10T12:27:54;101439.88;;;20.04;26.95
75551;BME280;65071;53.082;18.218;2023-05-10T12:30:22;101444.66;;;19.94;27.25
75551;BME280;65071;53.082;18.218;2023-05-10T12:32:49;101440.63;;;19.81;26.99
75551;BME280;65071;53.082;18.218;2023-05-10T12:35:17;101433.02;;;19.75;27.21
75551;BME280;65071;53.082;18.218;2023-05-10T12:37:45;101432.74;;;19.80;27.27
75551;BME280;65071;53.082;18.218;2023-05-10T12:40:12;101442.98;;;19.77;26.67
75551;BME280;65071;53.082;18.218;2023-05-10T12:42:39;101433.11;;;19.84;26.95
75551;BME280;65071;53.082;18.218;2023-05-10T12:45:07;101443.04;;;19.87;26.89
75551;BME280;65071;53.082;18.218;2023-05-10T12:47:34;101443.11;;;19.76;26.46
75551;BME280;65071;53.082;18.218;2023-05-10T12:50:02;101445.53;;;19.80;26.99
75551;BME280;65071;53.082;18.218;2023-05-10T12:52:29;101441.79;;;19.79;26.32
75551;BME280;65071;53.082;18.218;2023-05-10T12:54:56;101439.77;;;19.72;25.75
75551;BME280;65071;53.082;18.218;2023-05-10T12:57:22;101440.58;;;19.72;25.98
75551;BME280;65071;53.082;18.218;2023-05-10T12:59:56;101432.77;;;19.76;26.89
75551;BME280;65071;53.082;18.218;2023-05-10T13:02:23;101430.75;;;19.86;26.94
75551;BME280;65071;53.082;18.218;2023-05-10T13:04:50;101425.66;;;19.86;27.45
75551;BME280;65071;53.082;18.218;2023-05-10T13:07:17;101427.34;;;19.85;27.44
75551;BME280;65071;53.082;18.218;2023-05-10T13:09:44;101427.02;;;19.91;27.36
75551;BME280;65071;53.082;18.218;2023-05-10T13:12:11;101427.80;;;19.89;27.14
75551;BME280;65071;53.082;18.218;2023-05-10T13:14:38;101417.67;;;19.87;27.42
75551;BME280;65071;53.082;18.218;2023-05-10T13:17:06;101426.69;;;19.96;27.69
75551;BME280;65071;53.082;18.218;2023-05-10T13:19:33;101428.52;;;20.03;27.59
75551;BME280;65071;53.082;18.218;2023-05-10T13:21:59;101416.99;;;20.07;27.67
75551;BME280;65071;53.082;18.218;2023-05-10T13:24:26;101414.52;;;20.09;28.02
75551;BME280;65071;53.082;18.218;2023-05-10T13:26:53;101417.71;;;20.07;27.61
75551;BME280;65071;53.082;18.218;2023-05-10T13:29:19;101414.55;;;20.02;27.23
75551;BME280;65071;53.082;18.218;2023-05-10T13:31:47;101412.44;;;19.90;27.42
75551;BME280;65071;53.082;18.218;2023-05-10T13:34:14;101411.55;;;19.96;28.08
75551;BME280;65071;53.082;18.218;2023-05-10T13:36:40;101404.23;;;20.03;28.55
75551;BME280;65071;53.082;18.218;2023-05-10T13:39:07;101403.42;;;20.07;27.87
75551;BME280;65071;53.082;18.218;2023-05-10T13:41:34;101396.93;;;20.12;28.10
75551;BME280;65071;53.082;18.218;2023-05-10T13:44:01;101394.73;;;20.20;28.23
75551;BME280;65071;53.082;18.218;2023-05-10T13:46:29;101397.21;;;20.16;27.75
75551;BME280;65071;53.082;18.218;2023-05-10T13:48:56;101401.15;;;20.18;28.02
75551;BME280;65071;53.082;18.218;2023-05-10T13:51:23;101397.65;;;20.07;28.11